Tarkington Prairie, Texas
Current Conditions -  °F | °C
As of 9:55 PM on Thursday 18 Dec 2014 (Local Time) from K6R3 Reporting Station
Haze Haze  
Wind Chill: 58°   Ceiling: 600
Heat Index: 58°   Visibility: 5mi
Dew Point: 56°   Wind: 5mph
Humidity: 96%   Direction: 80°E
Pressure: 30.11"   Gusts: NA
Location:  30.2945°N, 94.9711°W
Report Text: K6R3 190355Z AUTO 08004KT 5SM BR OVC006 14/14 A3011 RMK AO2 LTG DSNT W T01420135
Loading
Personal Weather Stations






























Interactive Weather Map New forecast layout! Learn more

10-Day Weather Forecast

Advertisements
Track Severe Weather on mobile